sensor_id;sensor_type;location;lat;lon;timestamp;pressure;altitude;pressure_sealevel;temperature;humidity
6194;BME280;3130;41.564;23.280;2023-01-19T00:00:44;98234.47;;;16.96;54.89
6194;BME280;3130;41.564;23.280;2023-01-19T00:03:13;98081.44;;;16.03;54.41
6194;BME280;3130;41.564;23.280;2023-01-19T00:05:42;98201.09;;;16.76;55.03
6194;BME280;3130;41.564;23.280;2023-01-19T00:08:10;98216.66;;;16.93;53.37
6194;BME280;3130;41.564;23.280;2023-01-19T00:10:45;98222.66;;;17.11;53.68
6194;BME280;3130;41.564;23.280;2023-01-19T00:13:14;98174.25;;;16.77;53.39
6194;BME280;3130;41.564;23.280;2023-01-19T00:15:41;98232.47;;;17.08;54.37
6194;BME280;3130;41.564;23.280;2023-01-19T00:18:08;98228.13;;;17.08;53.81
6194;BME280;3130;41.564;23.280;2023-01-19T00:20:37;98223.09;;;17.07;54.15
6194;BME280;3130;41.564;23.280;2023-01-19T00:23:05;97991.13;;;15.74;53.78
6194;BME280;3130;41.564;23.280;2023-01-19T00:25:32;98212.28;;;17.11;53.07
6194;BME280;3130;41.564;23.280;2023-01-19T00:27:59;98158.22;;;16.73;52.60
6194;BME280;3130;41.564;23.280;2023-01-19T00:30:27;98233.66;;;17.13;52.91
6194;BME280;3130;41.564;23.280;2023-01-19T00:32:54;98235.63;;;17.11;52.97
6194;BME280;3130;41.564;23.280;2023-01-19T00:35:21;98240.91;;;17.10;52.98
6194;BME280;3130;41.564;23.280;2023-01-19T00:37:50;98224.28;;;16.95;53.08
6194;BME280;3130;41.564;23.280;2023-01-19T00:40:17;98167.97;;;16.62;52.77
6194;BME280;3130;41.564;23.280;2023-01-19T00:42:44;98240.84;;;17.19;52.59
6194;BME280;3130;41.564;23.280;2023-01-19T00:45:14;98226.41;;;17.17;52.09
6194;BME280;3130;41.564;23.280;2023-01-19T00:47:43;98138.03;;;16.59;51.89
6194;BME280;3130;41.564;23.280;2023-01-19T00:50:11;98217.22;;;17.05;52.45
6194;BME280;3130;41.564;23.280;2023-01-19T00:52:39;98204.38;;;16.95;52.71
6194;BME280;3130;41.564;23.280;2023-01-19T00:55:10;98240.91;;;17.10;52.23
6194;BME280;3130;41.564;23.280;2023-01-19T00:57:38;98238.50;;;17.08;51.66
6194;BME280;3130;41.564;23.280;2023-01-19T01:00:08;98231.00;;;17.05;52.27
6194;BME280;3130;41.564;23.280;2023-01-19T01:02:36;98241.00;;;17.00;51.66
6194;BME280;3130;41.564;23.280;2023-01-19T01:05:04;98158.34;;;16.54;52.54
6194;BME280;3130;41.564;23.280;2023-01-19T01:07:32;98248.84;;;17.08;52.99
6194;BME280;3130;41.564;23.280;2023-01-19T01:10:06;98255.38;;;17.12;53.89
6194;BME280;3130;41.564;23.280;2023-01-19T01:12:35;98226.47;;;16.90;54.11
6194;BME280;3130;41.564;23.280;2023-01-19T01:15:03;98255.66;;;17.09;54.10
6194;BME280;3130;41.564;23.280;2023-01-19T01:17:30;98259.22;;;17.08;53.64
6194;BME280;3130;41.564;23.280;2023-01-19T01:19:57;98235.97;;;16.99;53.30
6194;BME280;3130;41.564;23.280;2023-01-19T01:22:24;98207.63;;;16.80;52.69
6194;BME280;3130;41.564;23.280;2023-01-19T01:24:52;98267.00;;;17.08;52.77
6194;BME280;3130;41.564;23.280;2023-01-19T01:27:19;98115.09;;;16.20;53.41
6194;BME280;3130;41.564;23.280;2023-01-19T01:29:50;98263.72;;;17.06;53.52
6194;BME280;3130;41.564;23.280;2023-01-19T01:32:17;98264.13;;;17.11;53.43
6194;BME280;3130;41.564;23.280;2023-01-19T01:34:44;98273.25;;;17.06;53.84
6194;BME280;3130;41.564;23.280;2023-01-19T01:37:11;98150.44;;;16.29;53.08
6194;BME280;3130;41.564;23.280;2023-01-19T01:39:39;98253.72;;;16.94;53.34
6194;BME280;3130;41.564;23.280;2023-01-19T01:42:14;98172.97;;;16.46;53.87
6194;BME280;3130;41.564;23.280;2023-01-19T01:44:54;98121.28;;;16.10;53.82
6194;BME280;3130;41.564;23.280;2023-01-19T01:47:26;98241.66;;;16.85;53.81
6194;BME280;3130;41.564;23.280;2023-01-19T01:49:58;98090.22;;;15.92;53.19
6194;BME280;3130;41.564;23.280;2023-01-19T01:52:28;98273.41;;;17.04;53.26
6194;BME280;3130;41.564;23.280;2023-01-19T01:54:58;98275.72;;;17.07;53.42
6194;BME280;3130;41.564;23.280;2023-01-19T01:57:26;98266.03;;;17.09;53.89
6194;BME280;3130;41.564;23.280;2023-01-19T01:59:56;98254.97;;;16.90;54.11
6194;BME280;3130;41.564;23.280;2023-01-19T02:02:26;98091.69;;;15.95;53.70
6194;BME280;3130;41.564;23.280;2023-01-19T02:05:17;98266.84;;;17.10;52.62
6194;BME280;3130;41.564;23.280;2023-01-19T02:07:48;98062.78;;;15.82;52.82
6194;BME280;3130;41.564;23.280;2023-01-19T02:10:34;98262.38;;;17.02;53.17
6194;BME280;3130;41.564;23.280;2023-01-19T02:13:19;98260.75;;;17.01;52.45
6194;BME280;3130;41.564;23.280;2023-01-19T02:15:50;98217.16;;;16.79;52.33
6194;BME280;3130;41.564;23.280;2023-01-19T02:18:18;98243.66;;;16.91;52.54
6194;BME280;3130;41.564;23.280;2023-01-19T02:20:52;98266.78;;;17.02;52.54
6194;BME280;3130;41.564;23.280;2023-01-19T02:23:30;98127.06;;;16.21;51.35
6194;BME280;3130;41.564;23.280;2023-01-19T02:26:00;98085.44;;;15.97;51.14
6194;BME280;3130;41.564;23.280;2023-01-19T02:28:28;98254.72;;;17.10;51.36
6194;BME280;3130;41.564;23.280;2023-01-19T02:30:56;98267.66;;;17.10;51.18
6194;BME280;3130;41.564;23.280;2023-01-19T02:33:24;98267.66;;;17.10;50.98
6194;BME280;3130;41.564;23.280;2023-01-19T02:35:53;98210.66;;;16.75;51.62
6194;BME280;3130;41.564;23.280;2023-01-19T02:38:24;98268.34;;;17.12;51.89
6194;BME280;3130;41.564;23.280;2023-01-19T02:40:54;98268.63;;;17.09;52.35
6194;BME280;3130;41.564;23.280;2023-01-19T02:43:24;98268.75;;;17.08;52.20
6194;BME280;3130;41.564;23.280;2023-01-19T02:45:52;98273.94;;;17.08;51.88
6194;BME280;3130;41.564;23.280;2023-01-19T02:48:20;98263.56;;;17.08;52.12
6194;BME280;3130;41.564;23.280;2023-01-19T02:50:49;98262.47;;;17.10;53.13
6194;BME280;3130;41.564;23.280;2023-01-19T02:53:37;98258.75;;;17.13;52.88
6194;BME280;3130;41.564;23.280;2023-01-19T02:56:46;98257.66;;;17.15;52.73
6194;BME280;3130;41.564;23.280;2023-01-19T02:59:26;98251.28;;;17.10;52.14
6194;BME280;3130;41.564;23.280;2023-01-19T03:02:13;98239.81;;;16.95;52.69
6194;BME280;3130;41.564;23.280;2023-01-19T03:04:56;98233.69;;;16.96;51.81
6194;BME280;3130;41.564;23.280;2023-01-19T03:07:32;98262.69;;;16.99;52.60
6194;BME280;3130;41.564;23.280;2023-01-19T03:10:04;98224.41;;;16.76;52.08
6194;BME280;3130;41.564;23.280;2023-01-19T03:12:39;98192.13;;;16.53;52.51
6194;BME280;3130;41.564;23.280;2023-01-19T03:15:14;98244.09;;;16.86;51.99
6194;BME280;3130;41.564;23.280;2023-01-19T03:17:48;98227.09;;;16.84;52.98
6194;BME280;3130;41.564;23.280;2023-01-19T03:20:18;98270.63;;;16.98;52.21
6194;BME280;3130;41.564;23.280;2023-01-19T03:22:52;98268.25;;;17.04;51.80
6194;BME280;3130;41.564;23.280;2023-01-19T03:25:21;98218.78;;;16.80;52.23
6194;BME280;3130;41.564;23.280;2023-01-19T03:27:52;98248.72;;;16.92;52.82
6194;BME280;3130;41.564;23.280;2023-01-19T03:30:24;98259.75;;;16.94;53.19
6194;BME280;3130;41.564;23.280;2023-01-19T03:32:55;98242.81;;;16.73;53.43
6194;BME280;3130;41.564;23.280;2023-01-19T03:35:28;98258.22;;;16.92;53.98
6194;BME280;3130;41.564;23.280;2023-01-19T03:37:55;98254.69;;;16.93;54.61
6194;BME280;3130;41.564;23.280;2023-01-19T03:40:25;98226.31;;;16.74;55.25
6194;BME280;3130;41.564;23.280;2023-01-19T03:42:55;98210.19;;;16.62;56.00
6194;BME280;3130;41.564;23.280;2023-01-19T03:45:23;98265.63;;;16.87;56.33
6194;BME280;3130;41.564;23.280;2023-01-19T03:47:51;98255.13;;;16.88;56.39
6194;BME280;3130;41.564;23.280;2023-01-19T03:50:23;98254.31;;;16.88;56.80
6194;BME280;3130;41.564;23.280;2023-01-19T03:53:04;98253.00;;;16.84;56.90
6194;BME280;3130;41.564;23.280;2023-01-19T03:55:32;98243.03;;;16.79;56.32
6194;BME280;3130;41.564;23.280;2023-01-19T03:58:01;98221.09;;;16.66;56.73
6194;BME280;3130;41.564;23.280;2023-01-19T04:00:29;98238.75;;;16.70;56.03
6194;BME280;3130;41.564;23.280;2023-01-19T04:02:56;98244.75;;;16.71;56.40
6194;BME280;3130;41.564;23.280;2023-01-19T04:05:23;98220.31;;;16.56;56.10
6194;BME280;3130;41.564;23.280;2023-01-19T04:07:51;98246.09;;;16.75;56.21
6194;BME280;3130;41.564;23.280;2023-01-19T04:10:19;98237.94;;;16.70;56.11
6194;BME280;3130;41.564;23.280;2023-01-19T04:12:46;98068.22;;;15.61;55.97
6194;BME280;3130;41.564;23.280;2023-01-19T04:15:15;98254.06;;;16.64;56.14
6194;BME280;3130;41.564;23.280;2023-01-19T04:17:43;98130.81;;;15.82;56.13
6194;BME280;3130;41.564;23.280;2023-01-19T04:20:10;98249.47;;;16.58;56.44
6194;BME280;3130;41.564;23.280;2023-01-19T04:22:37;98246.44;;;16.62;56.76
6194;BME280;3130;41.564;23.280;2023-01-19T04:25:06;98252.81;;;16.68;56.89
6194;BME280;3130;41.564;23.280;2023-01-19T04:27:33;98245.06;;;16.68;57.02
6194;BME280;3130;41.564;23.280;2023-01-19T04:30:01;98196.72;;;16.41;56.57
6194;BME280;3130;41.564;23.280;2023-01-19T04:32:31;98240.53;;;16.70;56.35
6194;BME280;3130;41.564;23.280;2023-01-19T04:34:58;98262.75;;;16.72;56.04
6194;BME280;3130;41.564;23.280;2023-01-19T04:37:25;98263.97;;;16.68;55.29
6194;BME280;3130;41.564;23.280;2023-01-19T04:39:52;98221.47;;;16.44;55.75
6194;BME280;3130;41.564;23.280;2023-01-19T04:42:20;98252.94;;;16.66;56.42
6194;BME280;3130;41.564;23.280;2023-01-19T04:44:47;98260.72;;;16.66;55.69
6194;BME280;3130;41.564;23.280;2023-01-19T04:47:14;98234.81;;;16.49;55.81
6194;BME280;3130;41.564;23.280;2023-01-19T04:49:43;98247.53;;;16.60;55.21
6194;BME280;3130;41.564;23.280;2023-01-19T04:52:10;98125.78;;;15.81;55.36
6194;BME280;3130;41.564;23.280;2023-01-19T04:54:37;98246.97;;;16.66;54.58
6194;BME280;3130;41.564;23.280;2023-01-19T04:57:05;98213.94;;;16.33;55.23
6194;BME280;3130;41.564;23.280;2023-01-19T04:59:32;98187.28;;;16.13;54.97
6194;BME280;3130;41.564;23.280;2023-01-19T05:02:00;98242.13;;;16.53;55.22
6194;BME280;3130;41.564;23.280;2023-01-19T05:04:27;98212.28;;;16.32;55.38
6194;BME280;3130;41.564;23.280;2023-01-19T05:06:56;98094.47;;;15.57;55.64
6194;BME280;3130;41.564;23.280;2023-01-19T05:09:23;98280.47;;;16.67;56.28
6194;BME280;3130;41.564;23.280;2023-01-19T05:11:51;98205.22;;;16.24;55.63
6194;BME280;3130;41.564;23.280;2023-01-19T05:14:19;98084.72;;;15.51;55.54
6194;BME280;3130;41.564;23.280;2023-01-19T05:16:46;98133.31;;;15.74;55.96
6194;BME280;3130;41.564;23.280;2023-01-19T05:19:13;98167.88;;;16.00;55.24
6194;BME280;3130;41.564;23.280;2023-01-19T05:21:41;98114.53;;;15.72;55.00
6194;BME280;3130;41.564;23.280;2023-01-19T05:24:09;98248.34;;;16.60;55.28
6194;BME280;3130;41.564;23.280;2023-01-19T05:26:37;98254.91;;;16.55;55.29
6194;BME280;3130;41.564;23.280;2023-01-19T05:29:04;98279.50;;;16.51;54.60
6194;BME280;3130;41.564;23.280;2023-01-19T05:31:32;98265.56;;;16.52;54.09
6194;BME280;3130;41.564;23.280;2023-01-19T05:34:00;98234.19;;;16.28;54.16
6194;BME280;3130;41.564;23.280;2023-01-19T05:36:28;98211.25;;;16.15;54.07
6194;BME280;3130;41.564;23.280;2023-01-19T05:38:55;98188.53;;;16.10;54.05
6194;BME280;3130;41.564;23.280;2023-01-19T05:41:24;98255.75;;;16.55;53.67
6194;BME280;3130;41.564;23.280;2023-01-19T05:43:51;98266.53;;;16.51;54.62
6194;BME280;3130;41.564;23.280;2023-01-19T05:46:18;98258.81;;;16.41;54.78
6194;BME280;3130;41.564;23.280;2023-01-19T05:48:45;98259.91;;;16.39;54.24
6194;BME280;3130;41.564;23.280;2023-01-19T05:51:12;98249.22;;;16.24;52.98
6194;BME280;3130;41.564;23.280;2023-01-19T05:53:39;98217.06;;;16.27;53.67
6194;BME280;3130;41.564;23.280;2023-01-19T05:56:07;98230.41;;;16.32;53.61
6194;BME280;3130;41.564;23.280;2023-01-19T05:58:37;98144.84;;;15.80;51.97
6194;BME280;3130;41.564;23.280;2023-01-19T06:01:06;98245.56;;;16.44;52.05
6194;BME280;3130;41.564;23.280;2023-01-19T06:03:35;98244.34;;;16.48;51.36
6194;BME280;3130;41.564;23.280;2023-01-19T06:06:06;98048.19;;;15.36;50.46
6194;BME280;3130;41.564;23.280;2023-01-19T06:08:36;97942.16;;;14.65;50.72
6194;BME280;3130;41.564;23.280;2023-01-19T06:11:05;98100.81;;;15.72;50.47
6194;BME280;3130;41.564;23.280;2023-01-19T06:13:33;98226.72;;;16.52;49.19
6194;BME280;3130;41.564;23.280;2023-01-19T06:16:05;98135.22;;;15.99;49.61
6194;BME280;3130;41.564;23.280;2023-01-19T06:18:33;98227.50;;;16.62;49.81
6194;BME280;3130;41.564;23.280;2023-01-19T06:21:03;98209.72;;;16.49;49.53
6194;BME280;3130;41.564;23.280;2023-01-19T06:23:31;98146.06;;;16.12;48.71
6194;BME280;3130;41.564;23.280;2023-01-19T06:26:02;98141.41;;;16.15;49.09
6194;BME280;3130;41.564;23.280;2023-01-19T06:28:37;97973.47;;;15.16;48.30
6194;BME280;3130;41.564;23.280;2023-01-19T06:31:17;98150.22;;;16.22;46.96
6194;BME280;3130;41.564;23.280;2023-01-19T06:33:45;98246.25;;;16.91;47.68
6194;BME280;3130;41.564;23.280;2023-01-19T06:36:21;97964.19;;;15.23;48.94
6194;BME280;3130;41.564;23.280;2023-01-19T06:38:58;98243.38;;;16.94;50.43
6194;BME280;3130;41.564;23.280;2023-01-19T06:41:28;98084.53;;;15.89;50.92
6194;BME280;3130;41.564;23.280;2023-01-19T06:44:12;98075.00;;;15.89;50.89
6194;BME280;3130;41.564;23.280;2023-01-19T06:46:53;98153.31;;;16.26;52.54
6194;BME280;3130;41.564;23.280;2023-01-19T06:49:43;98059.75;;;15.69;51.03
6194;BME280;3130;41.564;23.280;2023-01-19T06:52:19;98080.22;;;15.80;51.68
6194;BME280;3130;41.564;23.280;2023-01-19T06:54:46;98150.56;;;16.27;53.16
6194;BME280;3130;41.564;23.280;2023-01-19T06:57:14;98247.19;;;16.90;53.86
6194;BME280;3130;41.564;23.280;2023-01-19T06:59:41;98186.50;;;16.40;54.30
6194;BME280;3130;41.564;23.280;2023-01-19T07:02:10;98237.88;;;16.79;55.75
6194;BME280;3130;41.564;23.280;2023-01-19T07:04:38;98241.19;;;16.72;56.60
6194;BME280;3130;41.564;23.280;2023-01-19T07:07:06;98166.69;;;16.21;57.22
6194;BME280;3130;41.564;23.280;2023-01-19T07:09:33;98258.63;;;16.70;58.10
6194;BME280;3130;41.564;23.280;2023-01-19T07:12:00;98245.00;;;16.50;58.80
6194;BME280;3130;41.564;23.280;2023-01-19T07:14:27;98259.38;;;16.62;57.91
6194;BME280;3130;41.564;23.280;2023-01-19T07:16:58;98187.53;;;16.20;57.52
6194;BME280;3130;41.564;23.280;2023-01-19T07:19:27;98270.28;;;16.66;58.75
6194;BME280;3130;41.564;23.280;2023-01-19T07:21:54;98081.84;;;15.54;58.21
6194;BME280;3130;41.564;23.280;2023-01-19T07:24:22;98271.75;;;16.68;58.23
6194;BME280;3130;41.564;23.280;2023-01-19T07:26:49;98230.44;;;16.49;59.16
6194;BME280;3130;41.564;23.280;2023-01-19T07:29:17;98255.03;;;16.63;60.43
6194;BME280;3130;41.564;23.280;2023-01-19T07:31:44;98260.09;;;16.55;60.10
6194;BME280;3130;41.564;23.280;2023-01-19T07:34:13;98133.56;;;15.81;60.72
6194;BME280;3130;41.564;23.280;2023-01-19T07:36:41;98254.63;;;16.58;61.82
6194;BME280;3130;41.564;23.280;2023-01-19T07:39:08;98252.88;;;16.58;62.52
6194;BME280;3130;41.564;23.280;2023-01-19T07:41:35;98048.72;;;15.40;62.68
6194;BME280;3130;41.564;23.280;2023-01-19T07:44:03;98210.22;;;16.35;62.75
6194;BME280;3130;41.564;23.280;2023-01-19T07:46:30;98241.56;;;16.59;61.46
6194;BME280;3130;41.564;23.280;2023-01-19T07:48:57;98185.16;;;16.26;62.84
6194;BME280;3130;41.564;23.280;2023-01-19T07:51:24;98236.97;;;16.53;57.31
6194;BME280;3130;41.564;23.280;2023-01-19T07:53:53;98214.38;;;16.46;55.86
6194;BME280;3130;41.564;23.280;2023-01-19T07:56:21;98218.44;;;16.48;60.50
6194;BME280;3130;41.564;23.280;2023-01-19T07:58:49;98239.34;;;16.64;60.93
6194;BME280;3130;41.564;23.280;2023-01-19T08:01:17;98241.25;;;16.62;60.80
6194;BME280;3130;41.564;23.280;2023-01-19T08:03:46;98193.47;;;16.39;61.30
6194;BME280;3130;41.564;23.280;2023-01-19T08:06:18;98038.25;;;15.41;60.67
6194;BME280;3130;41.564;23.280;2023-01-19T08:08:46;98251.94;;;16.77;60.34
6194;BME280;3130;41.564;23.280;2023-01-19T08:11:15;98255.03;;;16.80;60.85
6194;BME280;3130;41.564;23.280;2023-01-19T08:13:42;98256.66;;;16.81;60.66
6194;BME280;3130;41.564;23.280;2023-01-19T08:16:09;98264.97;;;16.85;61.80
6194;BME280;3130;41.564;23.280;2023-01-19T08:18:36;98249.84;;;16.80;60.96
6194;BME280;3130;41.564;23.280;2023-01-19T08:21:04;98272.38;;;16.80;60.63
6194;BME280;3130;41.564;23.280;2023-01-19T08:23:32;98270.66;;;16.88;60.85
6194;BME280;3130;41.564;23.280;2023-01-19T08:25:59;98274.91;;;16.89;61.49
6194;BME280;3130;41.564;23.280;2023-01-19T08:28:28;98268.31;;;16.95;61.15
6194;BME280;3130;41.564;23.280;2023-01-19T08:30:55;98222.41;;;16.70;60.58
6194;BME280;3130;41.564;23.280;2023-01-19T08:33:24;98232.69;;;16.79;60.13
6194;BME280;3130;41.564;23.280;2023-01-19T08:35:52;98256.19;;;16.95;60.04
6194;BME280;3130;41.564;23.280;2023-01-19T08:38:23;98281.41;;;17.11;59.76
6194;BME280;3130;41.564;23.280;2023-01-19T08:40:50;98253.13;;;16.82;59.10
6194;BME280;3130;41.564;23.280;2023-01-19T08:43:17;98260.53;;;16.95;58.49
6194;BME280;3130;41.564;23.280;2023-01-19T08:45:50;98246.91;;;16.93;57.81
6194;BME280;3130;41.564;23.280;2023-01-19T08:48:20;98253.59;;;16.95;58.49
6194;BME280;3130;41.564;23.280;2023-01-19T08:50:49;98247.19;;;16.90;60.03
6194;BME280;3130;41.564;23.280;2023-01-19T08:53:18;98294.41;;;17.28;60.14
6194;BME280;3130;41.564;23.280;2023-01-19T08:55:45;98238.78;;;17.05;59.73
6194;BME280;3130;41.564;23.280;2023-01-19T08:58:13;98252.53;;;17.06;59.47
6194;BME280;3130;41.564;23.280;2023-01-19T09:00:40;98297.06;;;17.36;58.36
6194;BME280;3130;41.564;23.280;2023-01-19T09:03:11;98297.81;;;17.46;58.76
6194;BME280;3130;41.564;23.280;2023-01-19T09:05:38;98283.56;;;17.50;58.63
6194;BME280;3130;41.564;23.280;2023-01-19T09:08:08;98277.13;;;17.54;58.14
6194;BME280;3130;41.564;23.280;2023-01-19T09:10:37;98263.09;;;17.39;58.63
6194;BME280;3130;41.564;23.280;2023-01-19T09:13:06;98279.72;;;17.54;59.13
6194;BME280;3130;41.564;23.280;2023-01-19T09:15:35;98277.63;;;17.57;58.93
6194;BME280;3130;41.564;23.280;2023-01-19T09:18:04;98156.22;;;16.85;58.50
6194;BME280;3130;41.564;23.280;2023-01-19T09:20:34;98266.16;;;17.60;58.82
6194;BME280;3130;41.564;23.280;2023-01-19T09:23:03;98272.69;;;17.64;58.71
6194;BME280;3130;41.564;23.280;2023-01-19T09:25:30;98267.19;;;17.67;58.29
6194;BME280;3130;41.564;23.280;2023-01-19T09:27:58;98238.25;;;17.54;57.97
6194;BME280;3130;41.564;23.280;2023-01-19T09:30:27;98240.84;;;17.54;57.94
6194;BME280;3130;41.564;23.280;2023-01-19T09:32:54;98273.09;;;17.77;58.01
6194;BME280;3130;41.564;23.280;2023-01-19T09:35:21;98271.63;;;17.74;57.74
6194;BME280;3130;41.564;23.280;2023-01-19T09:37:50;98267.91;;;17.77;52.74
6194;BME280;3130;41.564;23.280;2023-01-19T09:40:17;98266.78;;;17.79;51.73
6194;BME280;3130;41.564;23.280;2023-01-19T09:42:50;98237.47;;;17.61;52.64
6194;BME280;3130;41.564;23.280;2023-01-19T09:45:26;98132.44;;;16.89;53.51
6194;BME280;3130;41.564;23.280;2023-01-19T09:47:57;98064.25;;;16.63;52.44
6194;BME280;3130;41.564;23.280;2023-01-19T09:50:30;98124.59;;;16.99;52.20
6194;BME280;3130;41.564;23.280;2023-01-19T09:53:02;98246.19;;;17.78;53.46
6194;BME280;3130;41.564;23.280;2023-01-19T09:55:31;98238.91;;;17.81;54.78
6194;BME280;3130;41.564;23.280;2023-01-19T09:58:02;98195.97;;;17.53;53.08
6194;BME280;3130;41.564;23.280;2023-01-19T10:00:31;98195.81;;;17.55;54.46
6194;BME280;3130;41.564;23.280;2023-01-19T10:03:02;98218.34;;;17.80;55.36
6194;BME280;3130;41.564;23.280;2023-01-19T10:05:41;98064.91;;;16.83;52.70
6194;BME280;3130;41.564;23.280;2023-01-19T10:08:18;98200.19;;;17.80;51.39
6194;BME280;3130;41.564;23.280;2023-01-19T10:10:53;98109.44;;;17.29;51.08
6194;BME280;3130;41.564;23.280;2023-01-19T10:13:31;98053.88;;;16.81;49.80
6194;BME280;3130;41.564;23.280;2023-01-19T10:16:23;98140.75;;;17.35;49.29
6194;BME280;3130;41.564;23.280;2023-01-19T10:19:16;97901.38;;;16.02;46.76
6194;BME280;3130;41.564;23.280;2023-01-19T10:21:51;97993.69;;;16.61;47.66
6194;BME280;3130;41.564;23.280;2023-01-19T10:24:37;98201.88;;;17.97;48.80
6194;BME280;3130;41.564;23.280;2023-01-19T10:27:15;97898.63;;;16.20;50.62
6194;BME280;3130;41.564;23.280;2023-01-19T10:29:46;97932.03;;;16.31;45.47
6194;BME280;3130;41.564;23.280;2023-01-19T10:32:44;97906.41;;;16.28;43.64
6194;BME280;3130;41.564;23.280;2023-01-19T10:35:39;98076.81;;;17.44;43.34
6194;BME280;3130;41.564;23.280;2023-01-19T10:38:34;97924.75;;;16.35;45.01
6194;BME280;3130;41.564;23.280;2023-01-19T10:41:26;98081.38;;;17.50;43.61
6194;BME280;3130;41.564;23.280;2023-01-19T10:43:59;98073.09;;;17.46;42.94
6194;BME280;3130;41.564;23.280;2023-01-19T10:46:42;98069.19;;;17.42;44.46
6194;BME280;3130;41.564;23.280;2023-01-19T10:49:25;98190.38;;;17.99;45.70
6194;BME280;3130;41.564;23.280;2023-01-19T10:51:57;98175.47;;;18.01;46.94
6194;BME280;3130;41.564;23.280;2023-01-19T10:54:27;98164.72;;;17.96;48.80
6194;BME280;3130;41.564;23.280;2023-01-19T10:57:19;98157.13;;;18.03;45.68
6194;BME280;3130;41.564;23.280;2023-01-19T10:59:51;98145.00;;;18.03;45.63
6194;BME280;3130;41.564;23.280;2023-01-19T11:02:27;98065.50;;;17.45;46.44
6194;BME280;3130;41.564;23.280;2023-01-19T11:05:24;97873.03;;;16.35;47.78
6194;BME280;3130;41.564;23.280;2023-01-19T11:07:58;97877.50;;;16.50;49.12
6194;BME280;3130;41.564;23.280;2023-01-19T11:10:35;98127.81;;;18.10;47.64
6194;BME280;3130;41.564;23.280;2023-01-19T11:13:27;98016.06;;;17.46;46.91
6194;BME280;3130;41.564;23.280;2023-01-19T11:16:07;98130.09;;;18.13;47.00
6194;BME280;3130;41.564;23.280;2023-01-19T11:18:55;97801.22;;;16.12;47.37
6194;BME280;3130;41.564;23.280;2023-01-19T11:27:15;97841.94;;;16.60;46.07
6194;BME280;3130;41.564;23.280;2023-01-19T11:29:51;97993.09;;;17.59;46.08
6194;BME280;3130;41.564;23.280;2023-01-19T11:32:26;97852.69;;;16.73;45.48
6194;BME280;3130;41.564;23.280;2023-01-19T11:38:16;97853.16;;;16.69;43.35
6194;BME280;3130;41.564;23.280;2023-01-19T11:44:15;97856.91;;;16.74;43.41
6194;BME280;3130;41.564;23.280;2023-01-19T11:47:15;98095.00;;;18.34;42.64
6194;BME280;3130;41.564;23.280;2023-01-19T11:50:10;97942.16;;;17.34;42.21
6194;BME280;3130;41.564;23.280;2023-01-19T11:52:50;98089.63;;;18.36;42.32
6194;BME280;3130;41.564;23.280;2023-01-19T11:55:22;97903.53;;;17.16;42.41
6194;BME280;3130;41.564;23.280;2023-01-19T11:58:04;97850.25;;;16.72;42.60
6194;BME280;3130;41.564;23.280;2023-01-19T12:00:41;98071.28;;;18.37;41.75
6194;BME280;3130;41.564;23.280;2023-01-19T12:03:17;98087.88;;;18.44;41.05
6194;BME280;3130;41.564;23.280;2023-01-19T12:05:51;97920.81;;;17.48;40.23
6194;BME280;3130;41.564;23.280;2023-01-19T12:08:40;97949.25;;;17.82;40.21
6194;BME280;3130;41.564;23.280;2023-01-19T12:11:33;97819.63;;;17.01;39.94
6194;BME280;3130;41.564;23.280;2023-01-19T12:14:02;98086.09;;;18.61;40.18
6194;BME280;3130;41.564;23.280;2023-01-19T12:16:32;98047.13;;;18.45;39.55
6194;BME280;3130;41.564;23.280;2023-01-19T12:19:10;98023.75;;;18.37;39.01
6194;BME280;3130;41.564;23.280;2023-01-19T12:21:46;97897.69;;;17.71;39.20
6194;BME280;3130;41.564;23.280;2023-01-19T12:24:19;97946.53;;;18.07;39.16
6194;BME280;3130;41.564;23.280;2023-01-19T12:26:55;97928.84;;;18.11;39.12
6194;BME280;3130;41.564;23.280;2023-01-19T12:29:26;97894.94;;;17.96;39.46
6194;BME280;3130;41.564;23.280;2023-01-19T12:32:16;98042.91;;;18.84;39.78
6194;BME280;3130;41.564;23.280;2023-01-19T12:34:53;97842.41;;;17.62;39.63
6194;BME280;3130;41.564;23.280;2023-01-19T12:37:36;98000.38;;;18.69;39.48
6194;BME280;3130;41.564;23.280;2023-01-19T12:40:23;97871.28;;;17.91;38.83
6194;BME280;3130;41.564;23.280;2023-01-19T12:43:02;97764.47;;;17.40;38.75
6194;BME280;3130;41.564;23.280;2023-01-19T12:45:32;97773.56;;;17.44;38.40
6194;BME280;3130;41.564;23.280;2023-01-19T12:48:22;97984.16;;;18.75;38.16
6194;BME280;3130;41.564;23.280;2023-01-19T12:50:53;97979.47;;;18.70;38.46
6194;BME280;3130;41.564;23.280;2023-01-19T12:53:20;98041.25;;;18.99;38.57
6194;BME280;3130;41.564;23.280;2023-01-19T12:55:57;98031.69;;;18.99;38.34
6194;BME280;3130;41.564;23.280;2023-01-19T12:58:24;98023.88;;;18.91;39.01
6194;BME280;3130;41.564;23.280;2023-01-19T13:01:13;97995.38;;;18.67;39.88
6194;BME280;3130;41.564;23.280;2023-01-19T13:04:01;97836.25;;;17.71;39.36
6194;BME280;3130;41.564;23.280;2023-01-19T13:07:06;98009.47;;;18.73;38.41
6194;BME280;3130;41.564;23.280;2023-01-19T13:09:36;98021.63;;;18.72;38.57
6194;BME280;3130;41.564;23.280;2023-01-19T13:12:18;98015.31;;;18.75;38.28
6194;BME280;3130;41.564;23.280;2023-01-19T13:14:46;97997.16;;;18.59;38.56
6194;BME280;3130;41.564;23.280;2023-01-19T13:17:27;97828.16;;;17.50;38.59
6194;BME280;3130;41.564;23.280;2023-01-19T13:20:27;98029.75;;;18.77;38.29
6194;BME280;3130;41.564;23.280;2023-01-19T13:23:24;97887.81;;;17.98;38.49
6194;BME280;3130;41.564;23.280;2023-01-19T13:26:03;97949.44;;;18.04;38.81
6194;BME280;3130;41.564;23.280;2023-01-19T13:28:36;97934.03;;;18.11;38.75
6194;BME280;3130;41.564;23.280;2023-01-19T13:31:04;97985.81;;;18.36;38.14
6194;BME280;3130;41.564;23.280;2023-01-19T13:33:41;97849.38;;;17.70;38.54
6194;BME280;3130;41.564;23.280;2023-01-19T13:36:26;98022.81;;;18.62;38.78
6194;BME280;3130;41.564;23.280;2023-01-19T13:38:58;98025.22;;;18.63;39.68
6194;BME280;3130;41.564;23.280;2023-01-19T13:41:29;98032.03;;;18.64;39.07
6194;BME280;3130;41.564;23.280;2023-01-19T13:44:00;97998.63;;;18.45;39.08
6194;BME280;3130;41.564;23.280;2023-01-19T13:46:28;97932.22;;;17.95;39.81
6194;BME280;3130;41.564;23.280;2023-01-19T13:49:01;98035.63;;;18.63;40.03